^^
Station Historical Data
Daily Summary for April 5, 2017 Units:  English    Metric   Both
« Previous Day
Next Day »
Daily Weekly Monthly Yearly Custom
  High: Low: Average:
Temperature: 65.2 °F 50.9 °F 58.4 °F
Dew Point: 46.6 °F 39.9 °F 43.2 °F
Humidity: 72 % 46 % 57 %
Wind Speed: 15.6 mph 0.0 mph 3.4 mph
Wind Gust: 19.6 mph - -
Wind:- - SW
Pressure: 29.95 in 29.72 in -
Precipitation: 0.00 in    
Historical Graphs
 
 
Tabular Data for April 5, 2017
Time Temperature Dew Point Pressure Wind Wind Speed Wind Gust Humidity Rainfall Rate (Hourly) solar Conditions
00:04 61.5 °F 44.7 °F 29.72 in WSW 0.3 mph 5.8 mph 54 % 0.00 in 0.0 W/m2 RA
00:09 61.2 °F 44.4 °F 29.72 in WSW 1.2 mph 3.5 mph 54 % 0.00 in 0.0 W/m2 RA
00:14 61.2 °F 44.4 °F 29.73 in WSW 3.1 mph 4.0 mph 54 % 0.00 in 0.0 W/m2 CLR
00:20 61.3 °F 45.0 °F 29.73 in West 0.9 mph 8.1 mph 55 % 0.00 in 0.0 W/m2 CLR
00:25 61.2 °F 44.9 °F 29.73 in WSW 2.6 mph 3.5 mph 55 % 0.00 in 0.0 W/m2 CLR
00:30 61.1 °F 44.8 °F 29.72 in WSW 0.7 mph 3.5 mph 55 % 0.00 in 0.0 W/m2 CLR
00:35 61.1 °F 44.8 °F 29.73 in WSW 0.1 mph   55 % 0.00 in 0.0 W/m2 CLR
00:40 61.0 °F 44.7 °F 29.72 in Calm   3.5 mph 55 % 0.00 in 0.0 W/m2 CLR
00:45 61.1 °F 44.8 °F 29.73 in SW 1.0 mph 5.0 mph 55 % 0.00 in 0.0 W/m2 CLR
00:46 61.1 °F 44.8 °F 29.73 in WSW 4.1 mph 4.6 mph 55 % 0.00 in 0.0 W/m2 CLR
00:50 61.0 °F 44.7 °F 29.73 in WSW 0.3 mph   55 % 0.00 in 0.0 W/m2 CLR
00:55 61.0 °F 44.7 °F 29.73 in WSW 0.7 mph 2.3 mph 55 % 0.00 in 0.0 W/m2 CLR
01:00 60.9 °F 44.6 °F 29.73 in West 1.0 mph 5.8 mph 55 % 0.00 in 0.0 W/m2 CLR
01:06 60.8 °F 45.0 °F 29.73 in West 0.1 mph 3.5 mph 56 % 0.00 in 0.0 W/m2 CLR
01:11 60.7 °F 44.9 °F 29.73 in Calm     56 % 0.00 in 0.0 W/m2 CLR
01:16 60.7 °F 44.9 °F 29.73 in WSW 0.8 mph 3.5 mph 56 % 0.00 in 0.0 W/m2 CLR
01:21 60.5 °F 44.7 °F 29.73 in West 2.1 mph 5.8 mph 56 % 0.00 in 0.0 W/m2 CLR
01:26 60.4 °F 45.1 °F 29.73 in WSW 1.9 mph 5.8 mph 57 % 0.00 in 0.0 W/m2 CLR
01:31 60.3 °F 45.5 °F 29.74 in WSW 0.7 mph 2.3 mph 58 % 0.00 in 0.0 W/m2 CLR
01:36 60.4 °F 45.1 °F 29.74 in West 2.6 mph 6.9 mph 57 % 0.00 in 0.0 W/m2 CLR
01:41 60.5 °F 45.2 °F 29.74 in West 0.5 mph 2.3 mph 57 % 0.00 in 0.0 W/m2 CLR
01:46 60.4 °F 45.1 °F 29.74 in WNW 0.2 mph 2.0 mph 57 % 0.00 in 0.0 W/m2 CLR
01:51 60.4 °F 45.1 °F 29.74 in WSW 0.3 mph 2.3 mph 57 % 0.00 in 0.0 W/m2 CLR
01:56 60.7 °F 45.4 °F 29.74 in West 10.0 mph 13.8 mph 57 % 0.00 in 0.0 W/m2 CLR
02:01 61.1 °F 45.3 °F 29.74 in WNW 9.0 mph 12.0 mph 56 % 0.00 in 0.0 W/m2 CLR
02:06 61.4 °F 45.1 °F 29.74 in West 9.9 mph 15.0 mph 55 % 0.00 in 0.0 W/m2 CLR
02:11 61.6 °F 45.3 °F 29.74 in WSW 9.3 mph 11.5 mph 55 % 0.00 in 0.0 W/m2 CLR
02:16 61.7 °F 45.4 °F 29.74 in West 10.3 mph 17.3 mph 55 % 0.00 in 0.0 W/m2 CLR
02:21 61.5 °F 45.7 °F 29.74 in West 9.5 mph 11.5 mph 56 % 0.00 in 0.0 W/m2 CLR
02:26 61.2 °F 45.4 °F 29.74 in WNW 6.4 mph 9.2 mph 56 % 0.00 in 0.0 W/m2 CLR
02:31 60.8 °F 45.5 °F 29.74 in West 6.0 mph 9.2 mph 57 % 0.00 in 0.0 W/m2 CLR
02:36 60.4 °F 45.1 °F 29.74 in WNW 8.3 mph 11.5 mph 57 % 0.00 in 0.0 W/m2 CLR
02:41 60.4 °F 45.1 °F 29.74 in WNW 9.8 mph 15.0 mph 57 % 0.00 in 0.0 W/m2 CLR
02:46 60.3 °F 45.0 °F 29.75 in West 6.5 mph 10.4 mph 57 % 0.00 in 0.0 W/m2 CLR
02:51 60.3 °F 45.0 °F 29.75 in WSW 9.5 mph 18.4 mph 57 % 0.00 in 0.0 W/m2 CLR
02:56 60.3 °F 44.5 °F 29.75 in West 15.6 mph 19.6 mph 56 % 0.00 in 0.0 W/m2 CLR
03:01 60.2 °F 44.9 °F 29.75 in WNW 6.1 mph 15.0 mph 57 % 0.00 in 0.0 W/m2 CLR
03:06 59.9 °F 44.6 °F 29.75 in West 7.8 mph 16.1 mph 57 % 0.00 in 0.0 W/m2 CLR
03:11 59.8 °F 44.5 °F 29.76 in West 8.4 mph 17.3 mph 57 % 0.00 in 0.0 W/m2 CLR
03:16 59.5 °F 44.7 °F 29.75 in WNW 8.6 mph 11.5 mph 58 % 0.00 in 0.0 W/m2 CLR
03:21 59.1 °F 44.3 °F 29.76 in WNW 3.7 mph 6.9 mph 58 % 0.00 in 0.0 W/m2 CLR
03:26 58.7 °F 44.4 °F 29.76 in WNW 0.9 mph 3.5 mph 59 % 0.00 in 0.0 W/m2 CLR
03:31 58.4 °F 44.1 °F 29.76 in West 2.9 mph 8.0 mph 59 % 0.00 in 0.0 W/m2 CLR
03:36 58.3 °F 44.0 °F 29.76 in WNW 10.4 mph 13.8 mph 59 % 0.00 in 0.0 W/m2 CLR
03:41 58.3 °F 44.0 °F 29.76 in West 7.5 mph 11.5 mph 59 % 0.00 in 0.0 W/m2 CLR
03:46 58.4 °F 43.7 °F 29.76 in WNW 8.1 mph 13.8 mph 58 % 0.00 in 0.0 W/m2 CLR
03:51 58.3 °F 43.6 °F 29.76 in WNW 8.3 mph 11.5 mph 58 % 0.00 in 0.0 W/m2 CLR
03:56 57.9 °F 43.7 °F 29.77 in West 6.4 mph 11.5 mph 59 % 0.00 in 0.0 W/m2 CLR
04:01 57.5 °F 43.3 °F 29.77 in WNW 6.7 mph 11.5 mph 59 % 0.00 in 0.0 W/m2 CLR
04:06 57.3 °F 43.1 °F 29.77 in WNW 4.3 mph 8.1 mph 59 % 0.00 in 0.0 W/m2 CLR
04:11 57.0 °F 43.2 °F 29.77 in NW 7.1 mph 10.4 mph 60 % 0.00 in 0.0 W/m2 CLR
04:17 56.9 °F 42.7 °F 29.78 in WNW 10.4 mph 16.1 mph 59 % 0.00 in 0.0 W/m2 CLR
04:22 56.6 °F 42.9 °F 29.78 in WNW 7.1 mph 12.0 mph 60 % 0.00 in 0.0 W/m2 CLR
04:27 56.1 °F 42.4 °F 29.78 in NW 3.5 mph 9.0 mph 60 % 0.00 in 0.0 W/m2 CLR
04:32 55.7 °F 42.5 °F 29.78 in WNW 2.1 mph 4.6 mph 61 % 0.00 in 0.0 W/m2 CLR
04:37 55.5 °F 42.3 °F 29.79 in WNW 4.1 mph 8.1 mph 61 % 0.00 in 0.0 W/m2 CLR
04:42 55.2 °F 42.0 °F 29.78 in West 6.0 mph 9.2 mph 61 % 0.00 in 0.0 W/m2 CLR
04:47 55.1 °F 41.9 °F 29.79 in WNW 2.1 mph 9.2 mph 61 % 0.00 in 0.0 W/m2 CLR
04:52 54.9 °F 41.7 °F 29.80 in West 1.6 mph 3.5 mph 61 % 0.00 in 0.0 W/m2 CLR
04:57 54.6 °F 41.4 °F 29.81 in West 3.7 mph 4.6 mph 61 % 0.00 in 0.0 W/m2 CLR
05:02 54.6 °F 41.4 °F 29.81 in WNW 2.8 mph 9.2 mph 61 % 0.00 in 0.0 W/m2 CLR
05:07 54.4 °F 41.2 °F 29.81 in NW 7.3 mph 11.5 mph 61 % 0.00 in 0.0 W/m2 CLR
05:12 54.3 °F 41.1 °F 29.81 in WNW 7.6 mph 11.5 mph 61 % 0.00 in 0.0 W/m2 CLR
05:17 54.0 °F 40.8 °F 29.81 in WNW 6.5 mph 11.5 mph 61 % 0.00 in 0.0 W/m2 CLR
05:22 53.9 °F 40.8 °F 29.82 in West 7.9 mph 12.7 mph 61 % 0.00 in 0.0 W/m2 CLR
05:27 53.6 °F 40.9 °F 29.82 in West 7.1 mph 13.0 mph 62 % 0.00 in 0.0 W/m2 CLR
05:32 53.5 °F 40.8 °F 29.82 in West 5.2 mph 10.4 mph 62 % 0.00 in 0.0 W/m2 CLR
05:37 53.4 °F 40.7 °F 29.83 in West 8.3 mph 12.7 mph 62 % 0.00 in 0.0 W/m2 CLR
05:42 53.2 °F 40.9 °F 29.83 in WSW 7.6 mph 13.0 mph 63 % 0.00 in 0.0 W/m2 CLR
05:47 53.1 °F 40.8 °F 29.84 in West 0.4 mph 2.3 mph 63 % 0.00 in 0.0 W/m2 CLR
05:52 52.9 °F 40.6 °F 29.84 in WSW 3.7 mph 8.0 mph 63 % 0.00 in 0.0 W/m2 CLR
05:57 52.6 °F 40.8 °F 29.84 in West 3.8 mph 8.0 mph 64 % 0.00 in 0.0 W/m2 CLR
06:02 52.2 °F 40.8 °F 29.84 in West 0.1 mph 3.5 mph 65 % 0.00 in 0.0 W/m2 CLR
06:07 52.0 °F 40.6 °F 29.85 in West 0.7 mph 1.2 mph 65 % 0.00 in 0.0 W/m2 CLR
06:12 51.9 °F 40.9 °F 29.86 in Calm     66 % 0.00 in 0.0 W/m2 CLR
06:17 51.7 °F 40.7 °F 29.86 in Calm   1.2 mph 66 % 0.00 in 0.0 W/m2 CLR
06:22 51.6 °F 40.6 °F 29.86 in West 1.3 mph 3.5 mph 66 % 0.00 in 0.0 W/m2 CLR
06:27 51.6 °F 40.6 °F 29.85 in WNW 1.6 mph 5.8 mph 66 % 0.00 in 0.0 W/m2 CLR
06:32 51.6 °F 40.6 °F 29.86 in WNW 1.4 mph 3.5 mph 66 % 0.00 in 0.0 W/m2 CLR
06:37 51.5 °F 40.5 °F 29.86 in Calm     66 % 0.00 in 0.0 W/m2 CLR
06:42 51.1 °F 40.5 °F 29.87 in West 2.6 mph 5.8 mph 67 % 0.00 in 0.0 W/m2 CLR
06:47 51.1 °F 40.1 °F 29.86 in WNW 2.7 mph 6.9 mph 66 % 0.00 in 5.0 W/m2 CLR
06:52 51.2 °F 40.2 °F 29.86 in NW 4.8 mph 6.9 mph 66 % 0.00 in 7.0 W/m2 CLR
06:57 51.1 °F 40.1 °F 29.87 in NW 3.8 mph 10.0 mph 66 % 0.00 in 14.0 W/m2 CLR
07:02 51.1 °F 40.1 °F 29.87 in Calm   1.2 mph 66 % 0.00 in 21.0 W/m2 CLR
07:07 51.3 °F 39.9 °F 29.88 in WNW 5.6 mph 11.5 mph 65 % 0.00 in 26.0 W/m2 CLR
07:12 51.7 °F 39.9 °F 29.88 in NNW 7.9 mph 10.4 mph 64 % 0.00 in 39.0 W/m2 CLR
07:17 52.0 °F 40.2 °F 29.88 in NW 8.2 mph 10.4 mph 64 % 0.00 in 53.0 W/m2 CLR
07:22 52.3 °F 40.1 °F 29.89 in WNW 7.6 mph 10.4 mph 63 % 0.00 in 51.0 W/m2 CLR
07:27 52.4 °F 40.2 °F 29.89 in WNW 2.7 mph 6.9 mph 63 % 0.00 in 54.0 W/m2 FEW
07:32 52.4 °F 40.2 °F 29.89 in WNW 5.2 mph 9.0 mph 63 % 0.00 in 62.0 W/m2 FEW
07:37 52.4 °F 40.2 °F 29.89 in WNW 5.7 mph 9.2 mph 63 % 0.00 in 69.0 W/m2 CLR
07:42 52.6 °F 40.4 °F 29.90 in NW 6.9 mph 12.0 mph 63 % 0.00 in 120.0 W/m2 CLR
07:47 52.7 °F 40.0 °F 29.90 in West 9.2 mph 12.7 mph 62 % 0.00 in 65.0 W/m2 SCT
07:52 52.6 °F 39.9 °F 29.90 in NW 6.9 mph 10.4 mph 62 % 0.00 in 67.0 W/m2 BKN
07:57 52.6 °F 40.4 °F 29.91 in West 9.2 mph 9.2 mph 63 % 0.00 in 98.0 W/m2 SCT
08:02 52.8 °F 40.1 °F 29.91 in WNW 7.0 mph 10.4 mph 62 % 0.00 in 120.0 W/m2 FEW
08:07 53.0 °F 40.7 °F 29.91 in NW 7.0 mph 9.2 mph 63 % 0.00 in 114.0 W/m2 FEW
08:12 53.0 °F 40.7 °F 29.91 in WNW 9.6 mph 15.0 mph 63 % 0.00 in 128.0 W/m2 FEW
08:17 52.7 °F 40.0 °F 29.92 in West 11.5 mph 17.3 mph 62 % 0.00 in 107.0 W/m2 SCT
08:22 52.6 °F 40.4 °F 29.92 in NNW 5.1 mph 11.5 mph 63 % 0.00 in 142.0 W/m2 SCT
08:27 53.1 °F 40.8 °F 29.92 in NW 9.7 mph 15.0 mph 63 % 0.00 in 388.0 W/m2 CLR
08:32 53.9 °F 40.8 °F 29.92 in NW 8.2 mph 12.7 mph 61 % 0.00 in 301.0 W/m2 CLR
08:37 53.9 °F 40.3 °F 29.93 in NW 6.9 mph 9.2 mph 60 % 0.00 in 229.0 W/m2 CLR
08:42 54.0 °F 40.4 °F 29.92 in WNW 9.2 mph 12.7 mph 60 % 0.00 in 214.0 W/m2 CLR
08:47 53.9 °F 40.3 °F 29.92 in NW 9.7 mph 14.0 mph 60 % 0.00 in 183.0 W/m2 FEW
08:52 53.5 °F 39.9 °F 29.92 in NW 10.1 mph 15.0 mph 60 % 0.00 in 174.0 W/m2 SCT
08:57 53.8 °F 40.7 °F 29.92 in WNW 8.3 mph 16.1 mph 61 % 0.00 in 248.0 W/m2 SCT
09:02 54.2 °F 40.6 °F 29.92 in NNW 7.4 mph 10.0 mph 60 % 0.00 in 181.0 W/m2 FEW
09:07 53.7 °F 40.1 °F 29.92 in NW 8.7 mph 12.7 mph 60 % 0.00 in 248.0 W/m2 SCT
09:12 53.9 °F 40.8 °F 29.92 in NW 5.7 mph 13.8 mph 61 % 0.00 in 218.0 W/m2 CLR
09:17 53.9 °F 40.8 °F 29.92 in NNW 6.1 mph 11.5 mph 61 % 0.00 in 213.0 W/m2 SCT
09:22 53.8 °F 40.7 °F 29.93 in NW 7.0 mph 11.5 mph 61 % 0.00 in 200.0 W/m2 SCT
09:27 53.7 °F 40.6 °F 29.93 in NNW 4.1 mph 10.4 mph 61 % 0.00 in 227.0 W/m2 SCT
09:32 53.8 °F 40.2 °F 29.93 in NW 8.8 mph 8.8 mph 60 % 0.00 in 239.0 W/m2 SCT
09:37 54.2 °F 40.6 °F 29.93 in WNW 8.4 mph 17.3 mph 60 % 0.00 in 364.0 W/m2 SCT
09:42 54.6 °F 41.0 °F 29.94 in NW 2.4 mph 4.6 mph 60 % 0.00 in 503.0 W/m2 FEW
09:47 55.2 °F 41.1 °F 29.94 in NNW 6.0 mph 6.9 mph 59 % 0.00 in 469.0 W/m2 CLR
09:48 55.3 °F 41.2 °F 29.94 in NNW 5.9 mph 10.4 mph 59 % 0.00 in 469.0 W/m2 CLR
09:53 56.9 °F 41.8 °F 29.94 in WNW 8.3 mph 12.7 mph 57 % 0.00 in 900.0 W/m2 CLR
09:58 57.0 °F 41.9 °F 29.94 in NW 6.0 mph 10.4 mph 57 % 0.00 in 881.0 W/m2 CLR
10:03 56.3 °F 40.8 °F 29.94 in NNW 5.7 mph 9.2 mph 56 % 0.00 in 244.0 W/m2 BKN
10:05 55.9 °F 41.3 °F 29.93 in NNW 4.5 mph 8.1 mph 58 % 0.00 in 248.0 W/m2 BKN
10:10 55.7 °F 41.1 °F 29.94 in NW 6.5 mph 10.4 mph 58 % 0.00 in 475.0 W/m2 CLR
10:15 56.7 °F 41.6 °F 29.93 in NW 8.7 mph 13.8 mph 57 % 0.00 in 446.0 W/m2 CLR
10:20 56.8 °F 41.7 °F 29.94 in North 4.8 mph 8.1 mph 57 % 0.00 in 343.0 W/m2 SCT
10:25 56.2 °F 42.1 °F 29.94 in NNE 4.6 mph 8.1 mph 59 % 0.00 in 457.0 W/m2 FEW
10:30 56.3 °F 42.1 °F 29.93 in NE 5.9 mph 11.5 mph 59 % 0.00 in 383.0 W/m2 FEW
10:35 56.9 °F 43.2 °F 29.93 in NNW 6.6 mph 10.4 mph 60 % 0.00 in 1093.0 W/m2 CLR
10:40 57.4 °F 43.2 °F 29.94 in NNW 5.6 mph 9.0 mph 59 % 0.00 in 1120.0 W/m2 CLR
10:45 57.5 °F 42.4 °F 29.94 in NNW 5.7 mph 9.2 mph 57 % 0.00 in 933.0 W/m2 CLR
10:50 57.4 °F 41.8 °F 29.94 in NW 5.8 mph 11.5 mph 56 % 0.00 in 981.0 W/m2 CLR
10:55 57.6 °F 42.5 °F 29.94 in WNW 8.3 mph 11.5 mph 57 % 0.00 in 378.0 W/m2 SCT
11:00 57.6 °F 42.0 °F 29.95 in NW 8.5 mph 11.5 mph 56 % 0.00 in 425.0 W/m2 SCT
11:05 56.9 °F 41.4 °F 29.95 in NNW 2.5 mph 3.5 mph 56 % 0.00 in 425.0 W/m2 SCT
11:10 57.1 °F 41.1 °F 29.95 in WNW 6.6 mph 9.2 mph 55 % 0.00 in 330.0 W/m2 SCT
11:15 56.6 °F 41.5 °F 29.95 in NNW 6.5 mph 11.5 mph 57 % 0.00 in 243.0 W/m2 BKN
11:20 56.1 °F 41.1 °F 29.95 in WNW 3.6 mph 6.9 mph 57 % 0.00 in 977.0 W/m2 BKN
11:25 56.3 °F 41.3 °F 29.95 in WNW 0.3 mph 3.5 mph 57 % 0.00 in 888.0 W/m2 CLR
11:30 57.9 °F 41.8 °F 29.95 in NNW 3.6 mph 6.9 mph 55 % 0.00 in 925.0 W/m2 CLR
11:35 57.4 °F 41.8 °F 29.94 in NW 2.8 mph 8.0 mph 56 % 0.00 in 986.0 W/m2 CLR
11:40 59.2 °F 43.0 °F 29.94 in WNW 2.3 mph 8.1 mph 55 % 0.00 in 828.0 W/m2 CLR
11:45 57.5 °F 41.4 °F 29.95 in NW 3.4 mph 5.8 mph 55 % 0.00 in 981.0 W/m2 FEW
11:50 57.3 °F 42.6 °F 29.95 in NNW 0.9 mph 3.5 mph 58 % 0.00 in 1136.0 W/m2 CLR
11:55 58.0 °F 42.4 °F 29.95 in WNW 0.9 mph 6.9 mph 56 % 0.00 in 413.0 W/m2 SCT
12:00 58.7 °F 42.1 °F 29.95 in NNW 1.5 mph 3.5 mph 54 % 0.00 in 1002.0 W/m2 CLR
12:05 58.1 °F 42.0 °F 29.94 in NW 1.2 mph 3.5 mph 55 % 0.00 in 582.0 W/m2 CLR
12:10 57.8 °F 42.2 °F 29.94 in NNE 2.7 mph 5.0 mph 56 % 0.00 in 984.0 W/m2 CLR
12:15 57.6 °F 42.9 °F 29.94 in Calm     58 % 0.00 in 925.0 W/m2 CLR
12:20 58.6 °F 42.5 °F 29.94 in NNW 0.9 mph 4.6 mph 55 % 0.00 in 742.0 W/m2 CLR
12:25 58.4 °F 41.8 °F 29.94 in SSW 1.4 mph 5.8 mph 54 % 0.00 in 939.0 W/m2 CLR
12:30 57.9 °F 42.3 °F 29.94 in Calm     56 % 0.00 in 1049.0 W/m2 CLR
12:35 58.4 °F 42.3 °F 29.94 in SW 0.7 mph 3.0 mph 55 % 0.00 in 1134.0 W/m2 CLR
12:40 58.8 °F 42.2 °F 29.94 in West 1.3 mph 3.0 mph 54 % 0.00 in 1044.0 W/m2 CLR
12:45 60.9 °F 43.6 °F 29.94 in Calm   3.5 mph 53 % 0.00 in 1060.0 W/m2 CLR
12:50 60.7 °F 43.0 °F 29.93 in North 1.6 mph 8.1 mph 52 % 0.00 in 965.0 W/m2 CLR
12:55 60.2 °F 43.5 °F 29.93 in North 1.1 mph 3.5 mph 54 % 0.00 in 930.0 W/m2 CLR
13:00 61.1 °F 43.8 °F 29.93 in NW 8.1 mph 11.5 mph 53 % 0.00 in 951.0 W/m2 CLR
13:05 61.1 °F 42.8 °F 29.93 in West 6.3 mph 8.0 mph 51 % 0.00 in 918.0 W/m2 CLR
13:10 60.3 °F 42.6 °F 29.92 in WNW 0.1 mph 1.2 mph 52 % 0.00 in 918.0 W/m2 CLR
13:15 60.0 °F 42.3 °F 29.92 in WNW 1.3 mph 5.0 mph 52 % 0.00 in 914.0 W/m2 CLR
13:20 60.3 °F 42.6 °F 29.92 in West 2.3 mph 3.5 mph 52 % 0.00 in 912.0 W/m2 CLR
13:25 60.4 °F 43.7 °F 29.92 in NNW 0.8 mph 3.5 mph 54 % 0.00 in 907.0 W/m2 CLR
13:30 60.3 °F 42.6 °F 29.92 in SSW 1.1 mph 3.5 mph 52 % 0.00 in 907.0 W/m2 CLR
13:35 60.3 °F 42.6 °F 29.91 in Calm   1.2 mph 52 % 0.00 in 905.0 W/m2 CLR
13:40 61.8 °F 44.0 °F 29.92 in NW 1.5 mph 4.6 mph 52 % 0.00 in 900.0 W/m2 CLR
13:46 61.2 °F 43.4 °F 29.92 in WNW 1.0 mph 6.9 mph 52 % 0.00 in 896.0 W/m2 CLR
13:51 60.8 °F 42.5 °F 29.92 in NW 0.1 mph 2.3 mph 51 % 0.00 in 891.0 W/m2 CLR
13:56 60.7 °F 43.5 °F 29.92 in East 0.9 mph 3.5 mph 53 % 0.00 in 886.0 W/m2 CLR
14:01 61.0 °F 42.7 °F 29.92 in Calm     51 % 0.00 in 882.0 W/m2 CLR
14:06 61.6 °F 43.8 °F 29.92 in Calm     52 % 0.00 in 877.0 W/m2 CLR
14:11 61.8 °F 43.5 °F 29.91 in South 0.1 mph 1.2 mph 51 % 0.00 in 872.0 W/m2 CLR
14:16 61.8 °F 43.0 °F 29.91 in SSW 1.0 mph 3.5 mph 50 % 0.00 in 867.0 W/m2 CLR
14:21 61.9 °F 42.5 °F 29.91 in Calm     49 % 0.00 in 844.0 W/m2 CLR
14:26 62.4 °F 43.5 °F 29.91 in NW 0.4 mph 2.3 mph 50 % 0.00 in 851.0 W/m2 CLR
14:31 63.5 °F 44.5 °F 29.91 in Calm     50 % 0.00 in 844.0 W/m2 CLR
14:36 63.9 °F 43.8 °F 29.91 in SW 1.8 mph 4.6 mph 48 % 0.00 in 837.0 W/m2 CLR
14:41 63.3 °F 44.3 °F 29.91 in South 5.1 mph 6.9 mph 50 % 0.00 in 821.0 W/m2 CLR
14:46 63.0 °F 44.1 °F 29.90 in South 1.3 mph 4.6 mph 50 % 0.00 in 814.0 W/m2 CLR
14:51 62.7 °F 43.3 °F 29.91 in SSW 0.3 mph 2.3 mph 49 % 0.00 in 805.0 W/m2 CLR
14:56 63.0 °F 44.1 °F 29.90 in South 1.8 mph 4.6 mph 50 % 0.00 in 798.0 W/m2 CLR
15:01 63.0 °F 43.5 °F 29.90 in SSW 1.3 mph 9.2 mph 49 % 0.00 in 779.0 W/m2 CLR
15:06 63.0 °F 43.5 °F 29.90 in South 2.6 mph 4.6 mph 49 % 0.00 in 775.0 W/m2 CLR
15:11 63.7 °F 44.7 °F 29.91 in SE 0.4 mph 3.0 mph 50 % 0.00 in 763.0 W/m2 CLR
15:16 62.9 °F 44.0 °F 29.91 in NNE 0.6 mph 3.5 mph 50 % 0.00 in 745.0 W/m2 CLR
15:21 63.6 °F 45.6 °F 29.91 in SSE 0.2 mph 1.0 mph 52 % 0.00 in 745.0 W/m2 CLR
15:26 63.8 °F 44.8 °F 29.90 in South 1.1 mph 3.5 mph 50 % 0.00 in 729.0 W/m2 CLR
15:31 64.2 °F 44.1 °F 29.91 in SW 2.5 mph 3.5 mph 48 % 0.00 in 724.0 W/m2 CLR
15:36 63.9 °F 43.3 °F 29.91 in WNW 0.7 mph 1.2 mph 47 % 0.00 in 684.0 W/m2 CLR
15:41 64.3 °F 43.6 °F 29.90 in Calm     47 % 0.00 in 719.0 W/m2 CLR
15:46 63.7 °F 44.7 °F 29.90 in Calm     50 % 0.00 in 570.0 W/m2 CLR
15:51 64.5 °F 44.4 °F 29.90 in WNW 0.5 mph 1.2 mph 48 % 0.00 in 589.0 W/m2 CLR
15:56 65.1 °F 44.9 °F 29.89 in NW 1.1 mph 3.5 mph 48 % 0.00 in 483.0 W/m2 FEW
16:01 65.1 °F 43.8 °F 29.89 in West 3.0 mph 6.9 mph 46 % 0.00 in 591.0 W/m2 CLR
16:06 64.5 °F 44.4 °F 29.88 in North 1.0 mph 3.0 mph 48 % 0.00 in 721.0 W/m2 CLR
16:11 64.6 °F 44.5 °F 29.88 in North 0.8 mph 3.5 mph 48 % 0.00 in 515.0 W/m2 CLR
16:16 64.3 °F 44.2 °F 29.87 in NNW 0.6 mph 2.3 mph 48 % 0.00 in 550.0 W/m2 CLR
16:21 64.8 °F 44.1 °F 29.87 in Calm     47 % 0.00 in 538.0 W/m2 CLR
16:26 64.6 °F 44.5 °F 29.87 in NNE 0.5 mph 2.3 mph 48 % 0.00 in 515.0 W/m2 CLR
16:31 64.7 °F 44.0 °F 29.86 in NNE 0.3 mph 3.5 mph 47 % 0.00 in 450.0 W/m2 CLR
16:36 64.5 °F 44.4 °F 29.87 in ENE 0.1 mph 1.2 mph 48 % 0.00 in 420.0 W/m2 CLR
16:41 64.3 °F 43.6 °F 29.87 in SE 0.3 mph 1.2 mph 47 % 0.00 in 371.0 W/m2 CLR
16:46 64.5 °F 44.4 °F 29.87 in Calm     48 % 0.00 in 438.0 W/m2 CLR
16:51 64.8 °F 44.1 °F 29.87 in Calm     47 % 0.00 in 406.0 W/m2 CLR
16:56 64.7 °F 44.0 °F 29.87 in Calm     47 % 0.00 in 350.0 W/m2 CLR
17:01 64.6 °F 44.5 °F 29.88 in ENE 0.2 mph 1.0 mph 48 % 0.00 in 308.0 W/m2 FEW
17:06 64.5 °F 44.4 °F 29.88 in Calm     48 % 0.00 in 287.0 W/m2 FEW
17:11 64.7 °F 44.5 °F 29.88 in Calm     48 % 0.00 in 287.0 W/m2 CLR
17:16 64.9 °F 44.2 °F 29.89 in SSE 0.8 mph 2.3 mph 47 % 0.00 in 271.0 W/m2 FEW
17:21 65.1 °F 44.4 °F 29.90 in South 0.3 mph 2.0 mph 47 % 0.00 in 232.0 W/m2 FEW
17:26 65.2 °F 44.5 °F 29.90 in Calm   1.2 mph 47 % 0.00 in 218.0 W/m2 FEW
17:31 65.2 °F 43.9 °F 29.90 in South 0.7 mph 4.0 mph 46 % 0.00 in 192.0 W/m2 SCT
17:36 64.9 °F 44.7 °F 29.90 in SE 0.5 mph   48 % 0.00 in 199.0 W/m2 FEW
17:41 65.2 °F 45.0 °F 29.90 in SSE 0.3 mph 2.0 mph 48 % 0.00 in 183.0 W/m2 SCT
17:46 65.2 °F 44.5 °F 29.90 in South 3.6 mph 5.8 mph 47 % 0.00 in 171.0 W/m2 SCT
17:51 65.0 °F 44.3 °F 29.90 in SSE 2.1 mph 5.8 mph 47 % 0.00 in 149.0 W/m2 SCT
17:56 64.8 °F 44.1 °F 29.90 in SSE 3.4 mph 4.6 mph 47 % 0.00 in 132.0 W/m2 SCT
18:01 64.7 °F 44.5 °F 29.90 in Calm   2.3 mph 48 % 0.00 in 127.0 W/m2 SCT
18:06 64.6 °F 45.0 °F 29.90 in South 0.8 mph 3.5 mph 49 % 0.00 in 116.0 W/m2 SCT
18:11 64.5 °F 44.9 °F 29.90 in Calm   1.2 mph 49 % 0.00 in 114.0 W/m2 SCT
18:16 64.6 °F 45.0 °F 29.90 in SSE 0.7 mph 4.6 mph 49 % 0.00 in 105.0 W/m2 SCT
18:21 64.4 °F 44.8 °F 29.90 in SSE 0.6 mph 9.2 mph 49 % 0.00 in 93.0 W/m2 SCT
18:26 64.2 °F 44.6 °F 29.90 in SSE 0.1 mph 1.2 mph 49 % 0.00 in 84.0 W/m2 SCT
18:31 64.1 °F 45.1 °F 29.90 in Calm   2.3 mph 50 % 0.00 in 70.0 W/m2 SCT
18:36 63.9 °F 44.9 °F 29.89 in SE 1.2 mph 1.2 mph 50 % 0.00 in 65.0 W/m2 SCT
18:41 63.7 °F 44.7 °F 29.89 in SSE 0.5 mph 2.3 mph 50 % 0.00 in 54.0 W/m2 SCT
18:46 63.5 °F 44.5 °F 29.88 in Calm   3.5 mph 50 % 0.00 in 42.0 W/m2 BKN
18:51 63.4 °F 44.9 °F 29.88 in Calm   1.0 mph 51 % 0.00 in 35.0 W/m2 BKN
18:56 63.3 °F 44.9 °F 29.88 in South 0.1 mph   51 % 0.00 in 28.0 W/m2 BKN
19:01 63.1 °F 44.7 °F 29.88 in Calm   2.3 mph 51 % 0.00 in 23.0 W/m2 BKN
19:06 63.0 °F 44.6 °F 29.88 in SE 0.7 mph 3.5 mph 51 % 0.00 in 16.0 W/m2 BKN
19:12 62.8 °F 44.9 °F 29.88 in Calm     52 % 0.00 in 12.0 W/m2 BKN
19:15 62.7 °F 44.8 °F 29.88 in Calm     52 % 0.00 in 9.0 W/m2 BKN
19:20 62.6 °F 44.7 °F 29.87 in Calm     52 % 0.00 in 5.0 W/m2 OVC
19:25 62.4 °F 44.5 °F 29.87 in Calm     52 % 0.00 in 0.0 W/m2 OVC
19:26 62.4 °F 44.5 °F 29.88 in Calm     52 % 0.00 in 0.0 W/m2 OVC
19:31 62.3 °F 44.4 °F 29.88 in Calm     52 % 0.00 in 0.0 W/m2 CLR
19:36 62.2 °F 44.9 °F 29.87 in Calm     53 % 0.00 in 7.0 W/m2 CLR
19:41 62.0 °F 44.7 °F 29.87 in SE 0.9 mph 4.6 mph 53 % 0.00 in 0.0 W/m2 CLR
19:46 61.9 °F 44.6 °F 29.88 in Calm     53 % 0.00 in 0.0 W/m2 CLR
19:51 61.8 °F 44.5 °F 29.88 in Calm     53 % 0.00 in 0.0 W/m2 CLR
19:56 61.8 °F 44.5 °F 29.88 in Calm     53 % 0.00 in 0.0 W/m2 CLR
20:01 61.6 °F 44.8 °F 29.88 in Calm     54 % 0.00 in 0.0 W/m2 CLR
20:06 61.5 °F 44.2 °F 29.88 in Calm     53 % 0.00 in 0.0 W/m2 CLR
20:11 61.3 °F 44.5 °F 29.87 in Calm     54 % 0.00 in 0.0 W/m2 CLR
20:16 61.1 °F 44.3 °F 29.87 in Calm     54 % 0.00 in 0.0 W/m2 CLR
20:21 61.1 °F 44.3 °F 29.88 in ESE 1.0 mph 1.2 mph 54 % 0.00 in 0.0 W/m2 CLR
20:26 61.0 °F 44.7 °F 29.88 in SE 2.9 mph 8.1 mph 55 % 0.00 in 0.0 W/m2 CLR
20:31 60.9 °F 45.1 °F 29.88 in SE 5.6 mph 10.4 mph 56 % 0.00 in 0.0 W/m2 CLR
20:36 60.6 °F 45.3 °F 29.88 in SE 0.3 mph 4.6 mph 57 % 0.00 in 0.0 W/m2 CLR
20:41 60.2 °F 45.8 °F 29.88 in ESE 3.2 mph 10.4 mph 59 % 0.00 in 0.0 W/m2 CLR
20:46 60.0 °F 46.1 °F 29.89 in ESE 2.8 mph 5.8 mph 60 % 0.00 in 0.0 W/m2 CLR
20:51 59.7 °F 46.2 °F 29.89 in SE 1.8 mph 4.6 mph 61 % 0.00 in 0.0 W/m2 CLR
20:56 59.4 °F 46.4 °F 29.89 in SE 1.3 mph 8.1 mph 62 % 0.00 in 0.0 W/m2 CLR
21:01 59.2 °F 46.2 °F 29.88 in ESE 3.5 mph 8.1 mph 62 % 0.00 in 0.0 W/m2 CLR
21:06 59.0 °F 46.4 °F 29.88 in SE 0.9 mph 4.0 mph 63 % 0.00 in 0.0 W/m2 CLR
21:11 58.8 °F 46.6 °F 29.87 in SE 3.9 mph 10.0 mph 64 % 0.00 in 0.0 W/m2 CLR
21:16 58.5 °F 46.4 °F 29.87 in ESE 3.5 mph 8.1 mph 64 % 0.00 in 0.0 W/m2 CLR
21:21 58.1 °F 46.4 °F 29.88 in ESE 7.3 mph 13.8 mph 65 % 0.00 in 0.0 W/m2 CLR
21:26 57.8 °F 46.5 °F 29.88 in SE 6.2 mph 9.2 mph 66 % 0.00 in 0.0 W/m2 CLR
21:31 57.4 °F 46.1 °F 29.88 in ESE 3.0 mph 6.9 mph 66 % 0.00 in 0.0 W/m2 CLR
21:36 57.0 °F 46.1 °F 29.88 in SE 3.4 mph 10.4 mph 67 % 0.00 in 0.0 W/m2 CLR
21:41 56.4 °F 46.0 °F 29.88 in ESE 3.1 mph 4.0 mph 68 % 0.00 in 0.0 W/m2 CLR
21:46 55.9 °F 45.5 °F 29.88 in ESE 1.4 mph 3.5 mph 68 % 0.00 in 0.0 W/m2 CLR
21:51 55.6 °F 45.6 °F 29.89 in SE 4.2 mph 10.4 mph 69 % 0.00 in 0.0 W/m2 CLR
21:56 55.3 °F 45.3 °F 29.89 in ESE 3.9 mph 5.8 mph 69 % 0.00 in 0.0 W/m2 CLR
22:01 54.9 °F 44.9 °F 29.90 in SE 5.2 mph 12.7 mph 69 % 0.00 in 0.0 W/m2 CLR
22:06 54.7 °F 44.7 °F 29.89 in ESE 7.9 mph 12.7 mph 69 % 0.00 in 0.0 W/m2 CLR
22:11 54.5 °F 44.5 °F 29.90 in SE 4.1 mph 6.9 mph 69 % 0.00 in 0.0 W/m2 CLR
22:16 54.3 °F 44.7 °F 29.90 in ESE 2.8 mph 6.0 mph 70 % 0.00 in 0.0 W/m2 CLR
22:21 54.1 °F 44.5 °F 29.90 in East 3.4 mph 7.0 mph 70 % 0.00 in 0.0 W/m2 CLR
22:26 53.9 °F 44.3 °F 29.90 in SE 0.6 mph 6.9 mph 70 % 0.00 in 0.0 W/m2 CLR
22:31 53.5 °F 44.0 °F 29.90 in SSE 1.9 mph 9.2 mph 70 % 0.00 in 0.0 W/m2 CLR
22:36 53.4 °F 44.2 °F 29.90 in Calm   1.2 mph 71 % 0.00 in 0.0 W/m2 CLR
22:41 53.1 °F 43.9 °F 29.91 in ESE 5.3 mph 8.1 mph 71 % 0.00 in 0.0 W/m2 CLR
22:47 52.8 °F 43.3 °F 29.90 in ESE 8.5 mph 11.5 mph 70 % 0.00 in 0.0 W/m2 CLR
22:52 52.5 °F 43.0 °F 29.90 in SSE 7.4 mph 12.7 mph 70 % 0.00 in 0.0 W/m2 CLR
22:57 52.4 °F 43.3 °F 29.89 in ESE 3.0 mph 3.5 mph 71 % 0.00 in 0.0 W/m2 CLR
23:02 52.2 °F 43.1 °F 29.90 in SE 1.8 mph 5.8 mph 71 % 0.00 in 0.0 W/m2 CLR
23:07 52.1 °F 43.0 °F 29.89 in ESE 1.5 mph 9.2 mph 71 % 0.00 in 0.0 W/m2 CLR
23:12 52.0 °F 42.9 °F 29.90 in ESE 4.2 mph 9.2 mph 71 % 0.00 in 0.0 W/m2 CLR
23:17 51.9 °F 42.8 °F 29.90 in East 0.1 mph 2.3 mph 71 % 0.00 in 0.0 W/m2 CLR
23:22 51.8 °F 42.7 °F 29.90 in SE 5.6 mph 8.1 mph 71 % 0.00 in 0.0 W/m2 CLR
23:27 51.7 °F 42.6 °F 29.90 in ESE 1.7 mph 3.5 mph 71 % 0.00 in 0.0 W/m2 CLR
23:32 51.6 °F 42.9 °F 29.89 in East 0.2 mph 4.0 mph 72 % 0.00 in 0.0 W/m2 CLR
23:37 51.5 °F 42.8 °F 29.90 in ESE 2.3 mph 6.9 mph 72 % 0.00 in 0.0 W/m2 CLR
23:42 51.3 °F 42.6 °F 29.90 in ESE 2.6 mph 6.9 mph 72 % 0.00 in 0.0 W/m2 CLR
23:47 51.1 °F 42.4 °F 29.91 in ESE 3.2 mph 10.4 mph 72 % 0.00 in 0.0 W/m2 CLR
23:52 51.0 °F 42.3 °F 29.91 in ESE 0.4 mph 2.3 mph 72 % 0.00 in 0.0 W/m2 CLR
23:57 50.9 °F 42.2 °F 29.91 in East 4.8 mph 9.2 mph 72 % 0.00 in 0.0 W/m2 CLR
Air Products Campus Weather
Compliments of Weather Underground - 3.5 mb